sensor_id;sensor_type;location;lat;lon;timestamp;P1;durP1;ratioP1;P2;durP2;ratioP2
18399;SDS011;9326;49.468;11.008;2023-04-15T05:01:45;5.77;;;5.27;;
18399;SDS011;9326;49.468;11.008;2023-04-15T05:04:12;5.97;;;5.47;;
18399;SDS011;9326;49.468;11.008;2023-04-15T05:06:40;6.07;;;5.50;;
18399;SDS011;9326;49.468;11.008;2023-04-15T05:09:07;6.27;;;5.50;;
18399;SDS011;9326;49.468;11.008;2023-04-15T05:11:35;7.13;;;6.03;;
18399;SDS011;9326;49.468;11.008;2023-04-15T05:14:02;6.57;;;5.97;;
18399;SDS011;9326;49.468;11.008;2023-04-15T05:16:29;7.60;;;5.67;;
18399;SDS011;9326;49.468;11.008;2023-04-15T05:19:00;6.27;;;5.70;;
18399;SDS011;9326;49.468;11.008;2023-04-15T05:21:28;7.07;;;5.90;;
18399;SDS011;9326;49.468;11.008;2023-04-15T05:23:55;6.47;;;5.87;;
18399;SDS011;9326;49.468;11.008;2023-04-15T05:26:22;6.50;;;5.90;;
18399;SDS011;9326;49.468;11.008;2023-04-15T05:28:52;7.43;;;6.73;;
18399;SDS011;9326;49.468;11.008;2023-04-15T05:31:19;6.90;;;6.20;;
18399;SDS011;9326;49.468;11.008;2023-04-15T05:33:46;6.10;;;5.50;;
18399;SDS011;9326;49.468;11.008;2023-04-15T05:36:14;7.27;;;6.50;;
18399;SDS011;9326;49.468;11.008;2023-04-15T05:38:41;8.03;;;6.80;;
18399;SDS011;9326;49.468;11.008;2023-04-15T05:41:08;7.03;;;6.33;;
18399;SDS011;9326;49.468;11.008;2023-04-15T05:43:36;6.63;;;5.93;;
18399;SDS011;9326;49.468;11.008;2023-04-15T05:46:03;6.90;;;6.20;;
18399;SDS011;9326;49.468;11.008;2023-04-15T05:48:30;7.30;;;6.60;;
18399;SDS011;9326;49.468;11.008;2023-04-15T05:50:57;7.40;;;6.70;;
18399;SDS011;9326;49.468;11.008;2023-04-15T05:53:25;7.37;;;6.67;;
18399;SDS011;9326;49.468;11.008;2023-04-15T05:55:52;7.60;;;6.47;;
18399;SDS011;9326;49.468;11.008;2023-04-15T05:58:19;6.77;;;6.10;;
18399;SDS011;9326;49.468;11.008;2023-04-15T06:00:49;8.77;;;6.60;;
18399;SDS011;9326;49.468;11.008;2023-04-15T06:03:16;6.70;;;6.10;;
18399;SDS011;9326;49.468;11.008;2023-04-15T06:05:43;7.80;;;6.47;;
18399;SDS011;9326;49.468;11.008;2023-04-15T06:08:10;7.50;;;6.50;;
18399;SDS011;9326;49.468;11.008;2023-04-15T06:10:39;7.13;;;6.43;;
18399;SDS011;9326;49.468;11.008;2023-04-15T06:13:06;7.13;;;6.43;;
18399;SDS011;9326;49.468;11.008;2023-04-15T06:15:33;7.13;;;6.47;;
18399;SDS011;9326;49.468;11.008;2023-04-15T06:18:01;7.30;;;6.13;;
18399;SDS011;9326;49.468;11.008;2023-04-15T06:20:27;7.03;;;6.33;;
18399;SDS011;9326;49.468;11.008;2023-04-15T06:22:55;8.47;;;6.83;;
18399;SDS011;9326;49.468;11.008;2023-04-15T06:25:23;7.20;;;6.50;;
18399;SDS011;9326;49.468;11.008;2023-04-15T06:27:51;8.13;;;6.63;;
18399;SDS011;9326;49.468;11.008;2023-04-15T06:30:18;7.70;;;7.00;;
18399;SDS011;9326;49.468;11.008;2023-04-15T06:32:45;6.90;;;6.30;;
18399;SDS011;9326;49.468;11.008;2023-04-15T06:35:15;7.30;;;6.60;;
18399;SDS011;9326;49.468;11.008;2023-04-15T06:37:42;7.03;;;6.37;;
18399;SDS011;9326;49.468;11.008;2023-04-15T06:40:09;7.10;;;6.50;;
18399;SDS011;9326;49.468;11.008;2023-04-15T06:42:37;6.70;;;6.10;;
18399;SDS011;9326;49.468;11.008;2023-04-15T06:45:06;6.80;;;6.20;;
18399;SDS011;9326;49.468;11.008;2023-04-15T06:47:33;7.10;;;6.03;;
18399;SDS011;9326;49.468;11.008;2023-04-15T06:50:00;6.77;;;6.13;;
18399;SDS011;9326;49.468;11.008;2023-04-15T06:52:28;7.30;;;6.43;;
18399;SDS011;9326;49.468;11.008;2023-04-15T06:54:55;8.10;;;6.53;;
18399;SDS011;9326;49.468;11.008;2023-04-15T06:57:23;7.33;;;6.63;;
18399;SDS011;9326;49.468;11.008;2023-04-15T06:59:50;7.07;;;6.37;;
18399;SDS011;9326;49.468;11.008;2023-04-15T07:02:20;7.80;;;6.70;;
18399;SDS011;9326;49.468;11.008;2023-04-15T07:04:47;6.80;;;6.20;;
18399;SDS011;9326;49.468;11.008;2023-04-15T07:07:15;7.77;;;6.40;;
18399;SDS011;9326;49.468;11.008;2023-04-15T07:09:43;7.60;;;6.90;;
18399;SDS011;9326;49.468;11.008;2023-04-15T07:12:12;7.40;;;6.47;;
18399;SDS011;9326;49.468;11.008;2023-04-15T07:14:39;7.67;;;6.83;;
18399;SDS011;9326;49.468;11.008;2023-04-15T07:17:07;7.07;;;6.47;;
18399;SDS011;9326;49.468;11.008;2023-04-15T07:19:36;7.30;;;6.30;;
18399;SDS011;9326;49.468;11.008;2023-04-15T07:22:03;7.00;;;6.30;;
18399;SDS011;9326;49.468;11.008;2023-04-15T07:24:31;6.30;;;5.70;;
18399;SDS011;9326;49.468;11.008;2023-04-15T07:26:59;6.47;;;5.77;;
18399;SDS011;9326;49.468;11.008;2023-04-15T07:29:26;6.43;;;5.63;;
18399;SDS011;9326;49.468;11.008;2023-04-15T07:31:53;6.60;;;5.50;;
18399;SDS011;9326;49.468;11.008;2023-04-15T07:34:21;6.23;;;5.70;;
18399;SDS011;9326;49.468;11.008;2023-04-15T07:36:49;6.57;;;5.50;;
18399;SDS011;9326;49.468;11.008;2023-04-15T07:39:16;6.83;;;5.20;;
18399;SDS011;9326;49.468;11.008;2023-04-15T07:41:44;6.00;;;5.50;;
18399;SDS011;9326;49.468;11.008;2023-04-15T07:44:11;6.30;;;5.60;;
18399;SDS011;9326;49.468;11.008;2023-04-15T07:46:38;5.73;;;5.23;;
18399;SDS011;9326;49.468;11.008;2023-04-15T07:49:06;5.80;;;5.30;;
18399;SDS011;9326;49.468;11.008;2023-04-15T07:51:34;4.73;;;4.23;;
18399;SDS011;9326;49.468;11.008;2023-04-15T07:54:06;4.93;;;3.73;;
18399;SDS011;9326;49.468;11.008;2023-04-15T07:56:33;4.60;;;4.20;;
18399;SDS011;9326;49.468;11.008;2023-04-15T07:59:00;4.43;;;4.03;;
18399;SDS011;9326;49.468;11.008;2023-04-15T08:01:28;5.17;;;4.73;;
18399;SDS011;9326;49.468;11.008;2023-04-15T08:03:56;4.83;;;4.33;;
18399;SDS011;9326;49.468;11.008;2023-04-15T08:06:24;4.53;;;4.13;;
18399;SDS011;9326;49.468;11.008;2023-04-15T08:08:51;5.10;;;4.67;;
18399;SDS011;9326;49.468;11.008;2023-04-15T08:11:20;5.57;;;5.00;;
18399;SDS011;9326;49.468;11.008;2023-04-15T08:13:49;4.87;;;4.47;;
18399;SDS011;9326;49.468;11.008;2023-04-15T08:16:17;5.33;;;4.13;;
18399;SDS011;9326;49.468;11.008;2023-04-15T08:18:44;4.93;;;4.43;;
18399;SDS011;9326;49.468;11.008;2023-04-15T08:21:12;3.43;;;3.10;;
18399;SDS011;9326;49.468;11.008;2023-04-15T08:23:39;3.53;;;3.23;;
18399;SDS011;9326;49.468;11.008;2023-04-15T08:26:07;2.27;;;1.80;;
18399;SDS011;9326;49.468;11.008;2023-04-15T08:28:35;2.70;;;2.40;;
18399;SDS011;9326;49.468;11.008;2023-04-15T08:31:02;2.03;;;1.83;;
18399;SDS011;9326;49.468;11.008;2023-04-15T08:33:29;2.23;;;2.10;;
18399;SDS011;9326;49.468;11.008;2023-04-15T08:35:56;3.03;;;2.30;;
18399;SDS011;9326;49.468;11.008;2023-04-15T08:38:24;3.37;;;2.80;;
18399;SDS011;9326;49.468;11.008;2023-04-15T08:40:52;2.07;;;1.97;;
18399;SDS011;9326;49.468;11.008;2023-04-15T08:43:20;1.30;;;1.20;;
18399;SDS011;9326;49.468;11.008;2023-04-15T08:45:53;1.60;;;1.50;;
18399;SDS011;9326;49.468;11.008;2023-04-15T08:48:23;1.23;;;0.90;;
18399;SDS011;9326;49.468;11.008;2023-04-15T08:50:51;1.10;;;1.10;;
18399;SDS011;9326;49.468;11.008;2023-04-15T08:53:18;1.40;;;1.30;;
18399;SDS011;9326;49.468;11.008;2023-04-15T08:55:46;0.90;;;0.90;;
18399;SDS011;9326;49.468;11.008;2023-04-15T08:58:16;2.60;;;1.40;;
18399;SDS011;9326;49.468;11.008;2023-04-15T09:00:46;1.23;;;1.13;;
18399;SDS011;9326;49.468;11.008;2023-04-15T09:03:14;2.63;;;1.27;;
18399;SDS011;9326;49.468;11.008;2023-04-15T09:05:43;1.33;;;1.20;;
18399;SDS011;9326;49.468;11.008;2023-04-15T09:08:10;1.13;;;1.03;;
18399;SDS011;9326;49.468;11.008;2023-04-15T09:10:37;1.00;;;0.90;;
18399;SDS011;9326;49.468;11.008;2023-04-15T09:13:04;1.20;;;0.83;;
18399;SDS011;9326;49.468;11.008;2023-04-15T09:15:31;1.07;;;1.00;;
18399;SDS011;9326;49.468;11.008;2023-04-15T09:17:59;1.00;;;0.93;;
18399;SDS011;9326;49.468;11.008;2023-04-15T09:20:27;0.90;;;0.90;;
18399;SDS011;9326;49.468;11.008;2023-04-15T09:22:54;1.20;;;1.07;;
18399;SDS011;9326;49.468;11.008;2023-04-15T09:25:25;0.70;;;0.70;;
18399;SDS011;9326;49.468;11.008;2023-04-15T09:27:53;1.07;;;1.07;;
18399;SDS011;9326;49.468;11.008;2023-04-15T09:30:21;1.77;;;0.80;;
18399;SDS011;9326;49.468;11.008;2023-04-15T09:32:49;1.03;;;0.93;;
18399;SDS011;9326;49.468;11.008;2023-04-15T09:35:16;2.50;;;1.47;;
18399;SDS011;9326;49.468;11.008;2023-04-15T09:37:45;2.10;;;1.50;;
18399;SDS011;9326;49.468;11.008;2023-04-15T09:40:12;1.50;;;1.40;;
18399;SDS011;9326;49.468;11.008;2023-04-15T09:42:52;1.47;;;1.37;;
18399;SDS011;9326;49.468;11.008;2023-04-15T09:45:20;2.20;;;1.67;;
18399;SDS011;9326;49.468;11.008;2023-04-15T09:47:47;1.70;;;1.60;;
18399;SDS011;9326;49.468;11.008;2023-04-15T09:50:16;1.80;;;1.70;;
18399;SDS011;9326;49.468;11.008;2023-04-15T09:52:45;1.80;;;1.70;;
18399;SDS011;9326;49.468;11.008;2023-04-15T09:55:12;2.30;;;1.70;;
18399;SDS011;9326;49.468;11.008;2023-04-15T09:57:41;1.50;;;1.40;;
18399;SDS011;9326;49.468;11.008;2023-04-15T10:00:09;1.40;;;1.30;;
18399;SDS011;9326;49.468;11.008;2023-04-15T10:02:36;1.73;;;1.30;;
18399;SDS011;9326;49.468;11.008;2023-04-15T10:05:03;1.40;;;1.30;;
18399;SDS011;9326;49.468;11.008;2023-04-15T10:07:34;1.30;;;1.20;;
18399;SDS011;9326;49.468;11.008;2023-04-15T10:10:03;1.50;;;1.30;;
18399;SDS011;9326;49.468;11.008;2023-04-15T10:12:31;1.97;;;1.47;;
18399;SDS011;9326;49.468;11.008;2023-04-15T10:14:58;1.83;;;1.20;;
18399;SDS011;9326;49.468;11.008;2023-04-15T10:17:27;1.30;;;1.20;;
18399;SDS011;9326;49.468;11.008;2023-04-15T10:19:57;1.47;;;1.37;;
18399;SDS011;9326;49.468;11.008;2023-04-15T10:22:26;1.30;;;1.20;;
18399;SDS011;9326;49.468;11.008;2023-04-15T10:24:54;1.40;;;1.30;;
18399;SDS011;9326;49.468;11.008;2023-04-15T10:27:23;1.50;;;1.40;;
18399;SDS011;9326;49.468;11.008;2023-04-15T10:29:50;1.87;;;1.70;;
18399;SDS011;9326;49.468;11.008;2023-04-15T10:32:18;2.33;;;2.13;;
18399;SDS011;9326;49.468;11.008;2023-04-15T10:34:46;1.97;;;1.87;;
18399;SDS011;9326;49.468;11.008;2023-04-15T10:37:19;2.50;;;2.03;;
18399;SDS011;9326;49.468;11.008;2023-04-15T10:39:46;2.37;;;1.90;;
18399;SDS011;9326;49.468;11.008;2023-04-15T10:42:13;2.17;;;2.07;;
18399;SDS011;9326;49.468;11.008;2023-04-15T10:44:43;2.33;;;2.13;;
18399;SDS011;9326;49.468;11.008;2023-04-15T10:47:11;2.30;;;2.10;;
18399;SDS011;9326;49.468;11.008;2023-04-15T10:49:42;2.40;;;1.93;;
18399;SDS011;9326;49.468;11.008;2023-04-15T10:52:10;2.10;;;1.90;;
18399;SDS011;9326;49.468;11.008;2023-04-15T10:54:37;3.20;;;2.90;;
18399;SDS011;9326;49.468;11.008;2023-04-15T10:57:08;2.70;;;2.50;;
18399;SDS011;9326;49.468;11.008;2023-04-15T11:02:29;2.83;;;2.63;;
18399;SDS011;9326;49.468;11.008;2023-04-15T11:05:04;3.10;;;2.40;;
18399;SDS011;9326;49.468;11.008;2023-04-15T11:07:35;2.93;;;2.63;;
18399;SDS011;9326;49.468;11.008;2023-04-15T11:10:02;2.93;;;2.73;;
18399;SDS011;9326;49.468;11.008;2023-04-15T11:12:34;2.60;;;2.40;;
18399;SDS011;9326;49.468;11.008;2023-04-15T11:17:51;3.40;;;2.80;;
18399;SDS011;9326;49.468;11.008;2023-04-15T11:20:18;1.83;;;1.73;;
18399;SDS011;9326;49.468;11.008;2023-04-15T11:22:48;2.10;;;2.00;;
18399;SDS011;9326;49.468;11.008;2023-04-15T11:25:22;2.17;;;1.97;;
18399;SDS011;9326;49.468;11.008;2023-04-15T11:27:50;2.30;;;2.13;;
18399;SDS011;9326;49.468;11.008;2023-04-15T11:30:19;2.50;;;2.30;;
18399;SDS011;9326;49.468;11.008;2023-04-15T11:32:46;2.20;;;2.00;;
18399;SDS011;9326;49.468;11.008;2023-04-15T11:35:15;2.63;;;2.17;;
18399;SDS011;9326;49.468;11.008;2023-04-15T11:37:43;2.30;;;2.10;;
18399;SDS011;9326;49.468;11.008;2023-04-15T11:40:10;2.50;;;2.30;;
18399;SDS011;9326;49.468;11.008;2023-04-15T11:42:37;2.40;;;2.20;;
18399;SDS011;9326;49.468;11.008;2023-04-15T11:45:08;1.70;;;1.60;;
18399;SDS011;9326;49.468;11.008;2023-04-15T11:47:35;2.33;;;1.93;;
18399;SDS011;9326;49.468;11.008;2023-04-15T11:50:19;1.47;;;1.37;;
18399;SDS011;9326;49.468;11.008;2023-04-15T11:52:52;1.40;;;1.30;;
18399;SDS011;9326;49.468;11.008;2023-04-15T11:55:20;2.07;;;1.97;;
18399;SDS011;9326;49.468;11.008;2023-04-15T11:58:04;1.70;;;1.60;;
18399;SDS011;9326;49.468;11.008;2023-04-15T12:00:32;1.70;;;1.50;;
18399;SDS011;9326;49.468;11.008;2023-04-15T12:03:12;1.87;;;1.63;;
18399;SDS011;9326;49.468;11.008;2023-04-15T12:08:33;1.70;;;1.60;;
18399;SDS011;9326;49.468;11.008;2023-04-15T12:11:13;1.97;;;1.87;;
18399;SDS011;9326;49.468;11.008;2023-04-15T12:13:42;1.90;;;1.80;;
18399;SDS011;9326;49.468;11.008;2023-04-15T12:16:09;2.80;;;2.50;;
18399;SDS011;9326;49.468;11.008;2023-04-15T12:18:36;1.90;;;1.80;;
18399;SDS011;9326;49.468;11.008;2023-04-15T12:21:08;1.80;;;1.70;;
18399;SDS011;9326;49.468;11.008;2023-04-15T12:23:37;1.80;;;1.70;;
18399;SDS011;9326;49.468;11.008;2023-04-15T12:26:04;2.13;;;1.70;;
18399;SDS011;9326;49.468;11.008;2023-04-15T12:28:33;2.80;;;1.80;;
18399;SDS011;9326;49.468;11.008;2023-04-15T12:31:05;1.47;;;1.40;;
18399;SDS011;9326;49.468;11.008;2023-04-15T12:33:33;1.80;;;1.70;;
18399;SDS011;9326;49.468;11.008;2023-04-15T12:36:00;1.53;;;1.43;;
18399;SDS011;9326;49.468;11.008;2023-04-15T12:38:28;1.60;;;1.50;;
18399;SDS011;9326;49.468;11.008;2023-04-15T12:40:57;1.50;;;1.40;;
18399;SDS011;9326;49.468;11.008;2023-04-15T12:43:24;1.50;;;1.40;;
18399;SDS011;9326;49.468;11.008;2023-04-15T12:45:52;1.60;;;1.50;;
18399;SDS011;9326;49.468;11.008;2023-04-15T12:48:19;1.70;;;1.60;;
18399;SDS011;9326;49.468;11.008;2023-04-15T12:50:46;1.43;;;1.43;;
18399;SDS011;9326;49.468;11.008;2023-04-15T12:53:13;1.57;;;1.37;;
18399;SDS011;9326;49.468;11.008;2023-04-15T12:55:41;1.50;;;1.40;;
18399;SDS011;9326;49.468;11.008;2023-04-15T12:58:09;1.30;;;1.20;;
18399;SDS011;9326;49.468;11.008;2023-04-15T13:00:37;1.00;;;1.00;;
18399;SDS011;9326;49.468;11.008;2023-04-15T13:03:04;2.03;;;1.50;;
18399;SDS011;9326;49.468;11.008;2023-04-15T13:05:31;1.60;;;1.50;;
18399;SDS011;9326;49.468;11.008;2023-04-15T13:08:02;1.67;;;1.57;;
18399;SDS011;9326;49.468;11.008;2023-04-15T13:10:29;1.50;;;1.40;;
18399;SDS011;9326;49.468;11.008;2023-04-15T13:12:56;2.50;;;1.40;;
18399;SDS011;9326;49.468;11.008;2023-04-15T13:15:24;1.60;;;1.50;;
18399;SDS011;9326;49.468;11.008;2023-04-15T13:17:52;1.40;;;1.30;;
18399;SDS011;9326;49.468;11.008;2023-04-15T13:20:20;1.60;;;1.50;;
18399;SDS011;9326;49.468;11.008;2023-04-15T13:22:47;1.97;;;1.33;;
18399;SDS011;9326;49.468;11.008;2023-04-15T13:25:14;1.60;;;1.50;;
18399;SDS011;9326;49.468;11.008;2023-04-15T13:27:44;1.60;;;1.50;;
18399;SDS011;9326;49.468;11.008;2023-04-15T13:30:11;1.30;;;1.20;;
18399;SDS011;9326;49.468;11.008;2023-04-15T13:32:40;1.70;;;1.30;;
18399;SDS011;9326;49.468;11.008;2023-04-15T13:35:07;1.40;;;1.30;;
18399;SDS011;9326;49.468;11.008;2023-04-15T13:37:34;1.20;;;1.10;;
18399;SDS011;9326;49.468;11.008;2023-04-15T13:40:01;1.27;;;1.17;;
18399;SDS011;9326;49.468;11.008;2023-04-15T13:42:31;1.13;;;1.00;;
18399;SDS011;9326;49.468;11.008;2023-04-15T13:45:00;1.40;;;1.30;;
18399;SDS011;9326;49.468;11.008;2023-04-15T13:47:27;2.07;;;1.30;;
18399;SDS011;9326;49.468;11.008;2023-04-15T13:49:57;1.30;;;1.20;;
18399;SDS011;9326;49.468;11.008;2023-04-15T13:52:24;1.63;;;1.50;;
18399;SDS011;9326;49.468;11.008;2023-04-15T13:54:51;1.30;;;1.20;;
18399;SDS011;9326;49.468;11.008;2023-04-15T13:57:18;1.40;;;1.30;;
18399;SDS011;9326;49.468;11.008;2023-04-15T13:59:45;1.63;;;1.53;;
18399;SDS011;9326;49.468;11.008;2023-04-15T14:02:12;1.50;;;1.40;;
18399;SDS011;9326;49.468;11.008;2023-04-15T14:04:39;1.40;;;1.30;;
18399;SDS011;9326;49.468;11.008;2023-04-15T14:07:08;2.70;;;1.40;;
18399;SDS011;9326;49.468;11.008;2023-04-15T14:09:35;1.60;;;1.50;;
18399;SDS011;9326;49.468;11.008;2023-04-15T14:12:04;1.40;;;1.37;;
18399;SDS011;9326;49.468;11.008;2023-04-15T14:14:31;2.13;;;1.60;;
18399;SDS011;9326;49.468;11.008;2023-04-15T14:16:58;1.90;;;1.80;;
18399;SDS011;9326;49.468;11.008;2023-04-15T14:19:25;2.10;;;2.00;;
18399;SDS011;9326;49.468;11.008;2023-04-15T14:21:54;1.63;;;1.53;;
18399;SDS011;9326;49.468;11.008;2023-04-15T14:24:23;1.77;;;1.63;;
18399;SDS011;9326;49.468;11.008;2023-04-15T14:26:51;1.60;;;1.50;;
18399;SDS011;9326;49.468;11.008;2023-04-15T14:29:18;1.67;;;1.57;;
18399;SDS011;9326;49.468;11.008;2023-04-15T14:31:45;1.70;;;1.60;;
18399;SDS011;9326;49.468;11.008;2023-04-15T14:34:13;1.50;;;1.40;;
18399;SDS011;9326;49.468;11.008;2023-04-15T14:36:44;1.80;;;1.70;;
18399;SDS011;9326;49.468;11.008;2023-04-15T14:39:11;2.03;;;1.83;;
18399;SDS011;9326;49.468;11.008;2023-04-15T14:41:40;1.60;;;1.50;;
18399;SDS011;9326;49.468;11.008;2023-04-15T14:44:08;1.97;;;1.87;;
18399;SDS011;9326;49.468;11.008;2023-04-15T14:46:35;1.60;;;1.50;;
18399;SDS011;9326;49.468;11.008;2023-04-15T14:49:02;3.30;;;1.80;;
18399;SDS011;9326;49.468;11.008;2023-04-15T14:51:30;1.83;;;1.73;;
18399;SDS011;9326;49.468;11.008;2023-04-15T14:53:57;2.20;;;2.00;;
18399;SDS011;9326;49.468;11.008;2023-04-15T14:56:25;1.87;;;1.77;;
18399;SDS011;9326;49.468;11.008;2023-04-15T14:58:53;2.30;;;2.10;;
18399;SDS011;9326;49.468;11.008;2023-04-15T15:01:20;2.10;;;2.00;;
18399;SDS011;9326;49.468;11.008;2023-04-15T15:03:47;2.30;;;2.20;;
18399;SDS011;9326;49.468;11.008;2023-04-15T15:06:14;2.00;;;1.87;;
18399;SDS011;9326;49.468;11.008;2023-04-15T15:08:41;2.27;;;2.07;;
18399;SDS011;9326;49.468;11.008;2023-04-15T15:11:09;2.07;;;1.97;;
18399;SDS011;9326;49.468;11.008;2023-04-15T15:13:36;2.00;;;1.90;;
18399;SDS011;9326;49.468;11.008;2023-04-15T15:16:04;1.93;;;1.83;;
18399;SDS011;9326;49.468;11.008;2023-04-15T15:18:31;2.10;;;2.00;;
18399;SDS011;9326;49.468;11.008;2023-04-15T15:20:59;2.30;;;2.10;;
18399;SDS011;9326;49.468;11.008;2023-04-15T15:23:27;2.23;;;2.03;;
18399;SDS011;9326;49.468;11.008;2023-04-15T15:25:54;1.80;;;1.70;;
18399;SDS011;9326;49.468;11.008;2023-04-15T15:28:22;2.33;;;2.20;;
18399;SDS011;9326;49.468;11.008;2023-04-15T15:30:49;3.10;;;1.70;;
18399;SDS011;9326;49.468;11.008;2023-04-15T15:33:18;1.70;;;1.60;;
18399;SDS011;9326;49.468;11.008;2023-04-15T15:35:45;2.00;;;1.90;;
18399;SDS011;9326;49.468;11.008;2023-04-15T15:38:12;2.10;;;1.77;;
18399;SDS011;9326;49.468;11.008;2023-04-15T15:40:40;1.73;;;1.63;;
18399;SDS011;9326;49.468;11.008;2023-04-15T15:43:07;2.00;;;1.90;;
18399;SDS011;9326;49.468;11.008;2023-04-15T15:45:34;1.90;;;1.70;;
18399;SDS011;9326;49.468;11.008;2023-04-15T15:48:01;1.57;;;1.47;;
18399;SDS011;9326;49.468;11.008;2023-04-15T15:50:30;1.63;;;1.53;;
18399;SDS011;9326;49.468;11.008;2023-04-15T15:52:57;2.40;;;2.20;;
18399;SDS011;9326;49.468;11.008;2023-04-15T15:55:25;2.07;;;1.97;;
18399;SDS011;9326;49.468;11.008;2023-04-15T15:57:52;1.90;;;1.80;;
18399;SDS011;9326;49.468;11.008;2023-04-15T16:00:21;2.20;;;2.10;;
18399;SDS011;9326;49.468;11.008;2023-04-15T16:02:48;2.67;;;2.47;;
18399;SDS011;9326;49.468;11.008;2023-04-15T16:05:15;2.60;;;2.40;;
18399;SDS011;9326;49.468;11.008;2023-04-15T16:07:44;2.87;;;2.47;;
18399;SDS011;9326;49.468;11.008;2023-04-15T16:10:11;3.17;;;2.87;;
18399;SDS011;9326;49.468;11.008;2023-04-15T16:12:38;2.90;;;2.70;;
18399;SDS011;9326;49.468;11.008;2023-04-15T16:15:07;2.70;;;2.50;;
18399;SDS011;9326;49.468;11.008;2023-04-15T16:17:35;2.90;;;2.70;;
18399;SDS011;9326;49.468;11.008;2023-04-15T16:20:02;6.13;;;5.17;;
18399;SDS011;9326;49.468;11.008;2023-04-15T16:22:29;3.67;;;3.33;;
18399;SDS011;9326;49.468;11.008;2023-04-15T16:24:58;2.87;;;2.67;;
18399;SDS011;9326;49.468;11.008;2023-04-15T16:27:25;3.63;;;3.13;;
18399;SDS011;9326;49.468;11.008;2023-04-15T16:29:52;4.50;;;3.10;;
18399;SDS011;9326;49.468;11.008;2023-04-15T16:32:19;3.73;;;3.40;;
18399;SDS011;9326;49.468;11.008;2023-04-15T16:34:46;3.60;;;3.30;;
18399;SDS011;9326;49.468;11.008;2023-04-15T16:37:14;3.77;;;3.47;;
18399;SDS011;9326;49.468;11.008;2023-04-15T16:39:41;3.00;;;2.80;;
18399;SDS011;9326;49.468;11.008;2023-04-15T16:42:09;3.80;;;3.40;;
18399;SDS011;9326;49.468;11.008;2023-04-15T16:44:36;3.50;;;3.20;;
18399;SDS011;9326;49.468;11.008;2023-04-15T16:47:03;6.10;;;4.47;;
18399;SDS011;9326;49.468;11.008;2023-04-15T16:49:32;4.53;;;4.13;;
18399;SDS011;9326;49.468;11.008;2023-04-15T16:52:00;4.40;;;3.50;;
18399;SDS011;9326;49.468;11.008;2023-04-15T16:54:27;4.30;;;3.23;;
18399;SDS011;9326;49.468;11.008;2023-04-15T16:56:54;4.17;;;3.70;;
18399;SDS011;9326;49.468;11.008;2023-04-15T16:59:24;3.90;;;3.60;;
18399;SDS011;9326;49.468;11.008;2023-04-15T17:01:51;3.57;;;3.27;;
18399;SDS011;9326;49.468;11.008;2023-04-15T17:04:19;3.87;;;3.57;;
18399;SDS011;9326;49.468;11.008;2023-04-15T17:06:46;3.50;;;3.20;;
18399;SDS011;9326;49.468;11.008;2023-04-15T17:09:13;4.07;;;3.77;;
18399;SDS011;9326;49.468;11.008;2023-04-15T17:11:40;3.87;;;3.57;;
18399;SDS011;9326;49.468;11.008;2023-04-15T17:14:08;4.17;;;3.87;;
18399;SDS011;9326;49.468;11.008;2023-04-15T17:16:37;6.00;;;5.30;;
18399;SDS011;9326;49.468;11.008;2023-04-15T17:19:04;4.67;;;4.27;;
18399;SDS011;9326;49.468;11.008;2023-04-15T17:21:31;5.00;;;4.50;;
18399;SDS011;9326;49.468;11.008;2023-04-15T17:23:58;4.80;;;4.40;;
18399;SDS011;9326;49.468;11.008;2023-04-15T17:26:25;4.77;;;4.37;;
18399;SDS011;9326;49.468;11.008;2023-04-15T17:28:52;4.70;;;4.30;;
18399;SDS011;9326;49.468;11.008;2023-04-15T17:31:19;4.13;;;3.73;;
18399;SDS011;9326;49.468;11.008;2023-04-15T17:33:48;5.83;;;4.40;;
18399;SDS011;9326;49.468;11.008;2023-04-15T17:36:15;4.40;;;3.77;;
18399;SDS011;9326;49.468;11.008;2023-04-15T17:38:42;4.13;;;3.73;;
18399;SDS011;9326;49.468;11.008;2023-04-15T17:41:09;4.30;;;3.90;;
18399;SDS011;9326;49.468;11.008;2023-04-15T17:43:37;4.70;;;4.30;;
18399;SDS011;9326;49.468;11.008;2023-04-15T17:46:04;5.10;;;4.27;;
18399;SDS011;9326;49.468;11.008;2023-04-15T17:48:33;5.23;;;4.10;;
18399;SDS011;9326;49.468;11.008;2023-04-15T17:51:01;4.57;;;4.17;;
18399;SDS011;9326;49.468;11.008;2023-04-15T17:53:28;5.70;;;4.53;;
18399;SDS011;9326;49.468;11.008;2023-04-15T17:55:56;5.10;;;4.70;;
18399;SDS011;9326;49.468;11.008;2023-04-15T17:58:24;5.40;;;4.90;;
18399;SDS011;9326;49.468;11.008;2023-04-15T18:00:51;4.70;;;4.03;;
18399;SDS011;9326;49.468;11.008;2023-04-15T18:03:18;6.60;;;5.90;;
18399;SDS011;9326;49.468;11.008;2023-04-15T18:05:46;6.57;;;5.90;;
18399;SDS011;9326;49.468;11.008;2023-04-15T18:08:14;4.83;;;4.40;;
18399;SDS011;9326;49.468;11.008;2023-04-15T18:10:41;5.47;;;4.97;;
18399;SDS011;9326;49.468;11.008;2023-04-15T18:13:08;3.73;;;3.43;;
18399;SDS011;9326;49.468;11.008;2023-04-15T18:15:35;3.03;;;2.83;;
18399;SDS011;9326;49.468;11.008;2023-04-15T18:18:03;3.27;;;2.90;;
18399;SDS011;9326;49.468;11.008;2023-04-15T18:20:30;3.90;;;3.20;;
18399;SDS011;9326;49.468;11.008;2023-04-15T18:23:01;3.30;;;3.00;;
18399;SDS011;9326;49.468;11.008;2023-04-15T18:25:29;3.00;;;2.60;;
18399;SDS011;9326;49.468;11.008;2023-04-15T18:27:58;3.37;;;3.07;;
18399;SDS011;9326;49.468;11.008;2023-04-15T18:30:25;2.80;;;2.60;;
18399;SDS011;9326;49.468;11.008;2023-04-15T18:32:52;3.43;;;2.77;;
18399;SDS011;9326;49.468;11.008;2023-04-15T18:35:19;2.93;;;2.73;;
18399;SDS011;9326;49.468;11.008;2023-04-15T18:37:48;2.87;;;2.67;;
18399;SDS011;9326;49.468;11.008;2023-04-15T18:40:15;2.83;;;2.53;;
18399;SDS011;9326;49.468;11.008;2023-04-15T18:42:43;2.97;;;2.77;;
18399;SDS011;9326;49.468;11.008;2023-04-15T18:45:10;3.30;;;3.00;;
18399;SDS011;9326;49.468;11.008;2023-04-15T18:47:37;2.80;;;2.60;;
18399;SDS011;9326;49.468;11.008;2023-04-15T18:50:06;3.37;;;3.07;;
18399;SDS011;9326;49.468;11.008;2023-04-15T18:52:33;3.37;;;3.07;;
18399;SDS011;9326;49.468;11.008;2023-04-15T18:55:00;3.90;;;3.50;;
18399;SDS011;9326;49.468;11.008;2023-04-15T18:57:27;3.50;;;3.10;;
18399;SDS011;9326;49.468;11.008;2023-04-15T18:59:57;3.23;;;3.03;;
18399;SDS011;9326;49.468;11.008;2023-04-15T19:02:24;3.73;;;3.43;;
18399;SDS011;9326;49.468;11.008;2023-04-15T19:04:52;4.10;;;3.80;;
18399;SDS011;9326;49.468;11.008;2023-04-15T19:07:19;4.03;;;3.73;;
18399;SDS011;9326;49.468;11.008;2023-04-15T19:09:47;4.33;;;3.93;;
18399;SDS011;9326;49.468;11.008;2023-04-15T19:12:14;4.20;;;3.80;;
18399;SDS011;9326;49.468;11.008;2023-04-15T19:14:44;5.27;;;4.03;;
18399;SDS011;9326;49.468;11.008;2023-04-15T19:17:15;4.57;;;4.10;;
18399;SDS011;9326;49.468;11.008;2023-04-15T19:19:43;5.43;;;3.77;;
18399;SDS011;9326;49.468;11.008;2023-04-15T19:22:10;4.97;;;3.73;;
18399;SDS011;9326;49.468;11.008;2023-04-15T19:24:37;4.27;;;3.87;;
18399;SDS011;9326;49.468;11.008;2023-04-15T19:27:04;3.43;;;3.10;;
18399;SDS011;9326;49.468;11.008;2023-04-15T19:29:32;3.13;;;2.90;;
18399;SDS011;9326;49.468;11.008;2023-04-15T19:31:59;3.77;;;3.23;;
18399;SDS011;9326;49.468;11.008;2023-04-15T19:34:32;3.30;;;3.00;;
18399;SDS011;9326;49.468;11.008;2023-04-15T19:37:00;3.17;;;2.87;;
18399;SDS011;9326;49.468;11.008;2023-04-15T19:39:27;3.27;;;2.97;;
18399;SDS011;9326;49.468;11.008;2023-04-15T19:41:55;2.83;;;2.60;;
18399;SDS011;9326;49.468;11.008;2023-04-15T19:44:22;2.90;;;2.60;;
18399;SDS011;9326;49.468;11.008;2023-04-15T19:46:51;3.60;;;3.30;;
18399;SDS011;9326;49.468;11.008;2023-04-15T19:49:18;2.80;;;2.60;;
18399;SDS011;9326;49.468;11.008;2023-04-15T19:51:47;3.10;;;2.80;;
18399;SDS011;9326;49.468;11.008;2023-04-15T19:54:17;2.83;;;2.63;;
18399;SDS011;9326;49.468;11.008;2023-04-15T19:56:44;2.90;;;2.70;;
18399;SDS011;9326;49.468;11.008;2023-04-15T19:59:12;3.13;;;2.87;;
18399;SDS011;9326;49.468;11.008;2023-04-15T20:01:39;2.80;;;2.60;;